Time;durP1;ratioP1;P1;durP2;ratioP2;P2;SDS_P1;SDS_P2;PMS_P1;PMS_P2;Temp;Humidity;BMP_temperature;BMP_pressure;BME280_temperature;BME280_humidity;BME280_pressure;Samples;Min_cycle;Max_cycle;Signal;HPM_P1;HPM_P2
2022/04/08 00:01:28;;;;;;;8.00;2.30;;;8.60;81.80;;;7.70;60.33;95848.38;5007204;28;20469;-72
2022/04/08 00:03:55;;;;;;;10.05;2.40;;;8.60;81.10;;;7.66;60.39;95848.13;5007521;28;20912;-70
2022/04/08 00:06:21;;;;;;;9.27;2.38;;;8.60;81.40;;;7.66;59.17;95863.16;5007482;28;20405;-71
2022/04/08 00:08:47;;;;;;;13.02;2.97;;;8.60;79.50;;;7.57;60.11;95870.00;5022604;28;20433;-70
2022/04/08 00:11:14;;;;;;;8.75;2.30;;;8.60;80.60;;;7.66;58.06;95850.78;5006934;28;20409;-71
2022/04/08 00:13:41;;;;;;;12.98;3.08;;;8.60;77.80;;;7.68;58.78;95864.44;5007042;28;20401;-71
2022/04/08 00:16:07;;;;;;;12.23;2.55;;;8.60;78.40;;;7.69;59.42;95852.06;5007342;28;20423;-71
2022/04/08 00:18:36;;;;;;;12.32;2.50;;;8.60;79.40;;;7.68;59.79;95859.16;5007272;28;20449;-71
2022/04/08 00:21:03;;;;;;;9.10;2.47;;;8.60;80.20;;;7.64;59.02;95871.31;5006800;28;20924;-71
2022/04/08 00:23:29;;;;;;;8.15;2.30;;;8.60;79.70;;;7.69;58.61;95860.75;5007316;28;20424;-71
2022/04/08 00:25:55;;;;;;;9.75;2.28;;;8.60;78.30;;;7.77;59.30;95864.66;5007156;28;20462;-71
2022/04/08 00:28:21;;;;;;;12.75;2.95;;;8.70;79.60;;;7.72;59.13;95867.31;5007091;28;20397;-71
2022/04/08 00:30:47;;;;;;;12.17;2.67;;;8.70;79.70;;;7.71;57.64;95856.00;5006478;28;20409;-71
2022/04/08 00:33:13;;;;;;;10.23;2.22;;;8.70;77.30;;;7.70;57.34;95851.78;5006940;28;20437;-71
2022/04/08 00:35:40;;;;;;;7.97;2.20;;;8.60;76.40;;;7.65;58.62;95869.47;5006950;28;20478;-71
2022/04/08 00:38:06;;;;;;;6.15;2.28;;;8.60;78.40;;;7.64;60.35;95858.13;5007082;28;20416;-71
2022/04/08 00:40:33;;;;;;;14.07;2.53;;;8.60;79.80;;;7.71;59.47;95871.81;5006478;28;20885;-71
2022/04/08 00:43:08;;;;;;;9.57;2.47;;;8.60;79.30;;;7.71;57.97;95869.19;5006879;28;20409;-71
2022/04/08 00:45:34;;;;;;;11.82;2.42;;;8.70;76.60;;;7.77;59.30;95857.56;5006900;28;20408;-71
2022/04/08 00:48:06;;;;;;;11.88;2.50;;;8.70;79.00;;;7.65;59.82;95882.63;5006893;28;20405;-71
2022/04/08 00:50:32;;;;;;;12.98;3.20;;;8.70;79.60;;;7.68;58.01;95867.06;5006426;28;20405;-71
2022/04/08 00:53:01;;;;;;;10.07;2.35;;;8.60;78.00;;;7.56;60.09;95869.22;5006813;28;20491;-71
2022/04/08 00:55:27;;;;;;;13.20;3.00;;;8.60;79.90;;;7.64;59.99;95886.31;5006669;28;20451;-71
2022/04/08 00:57:53;;;;;;;11.70;2.65;;;8.60;80.30;;;7.56;59.17;95885.03;5006875;28;20899;-71
2022/04/08 01:00:22;;;;;;;9.88;2.58;;;8.50;79.10;;;7.48;62.46;95897.94;5006290;28;20413;-71
2022/04/08 01:02:48;;;;;;;17.77;3.03;;;8.50;82.70;;;7.45;63.31;95899.25;5006601;28;20770;-71
2022/04/08 01:05:14;;;;;;;7.22;2.15;;;8.40;85.20;;;7.39;62.73;95918.75;5006678;28;20397;-71
2022/04/08 01:07:40;;;;;;;12.95;2.60;;;8.30;84.00;;;7.42;62.30;95910.34;5006536;28;20488;-71
2022/04/08 01:10:09;;;;;;;11.65;2.55;;;8.30;84.20;;;7.38;62.25;95906.66;5006142;28;20773;-71
2022/04/08 01:12:34;;;;;;;6.57;2.28;;;8.40;82.70;;;7.33;60.79;95914.56;5005210;28;20408;-71
2022/04/08 01:15:01;;;;;;;9.40;2.60;;;8.30;80.90;;;7.39;59.73;95910.88;5006287;28;20894;-71
2022/04/08 01:17:27;;;;;;;9.50;2.22;;;8.40;80.10;;;7.37;61.03;95908.50;5006487;28;20421;-71
2022/04/08 01:19:53;;;;;;;12.13;2.50;;;8.30;81.30;;;7.29;62.28;95916.94;5006322;28;20420;-71
2022/04/08 01:22:20;;;;;;;8.75;2.33;;;8.30;82.90;;;7.32;61.21;95916.41;5006032;28;20405;-71
2022/04/08 01:24:49;;;;;;;9.93;2.28;;;8.30;81.50;;;7.36;59.25;95937.72;5006376;28;20401;-71
2022/04/08 01:27:19;;;;;;;11.27;2.30;;;8.30;79.30;;;7.31;59.19;95925.34;5006254;28;20475;-71
2022/04/08 01:29:47;;;;;;;13.80;2.30;;;8.30;79.40;;;7.28;60.70;95914.59;5006306;28;20393;-71
2022/04/08 01:32:13;;;;;;;13.25;2.63;;;8.30;81.20;;;7.32;61.20;95932.19;5005864;28;20401;-70
2022/04/08 01:34:39;;;;;;;14.77;2.50;;;8.30;82.70;;;7.33;60.35;95925.09;5006313;28;20595;-70
2022/04/08 01:37:05;;;;;;;7.75;2.10;;;8.30;79.80;;;7.28;62.10;95936.44;5006144;28;20985;-70
2022/04/08 01:39:31;;;;;;;8.07;2.10;;;8.30;83.20;;;7.35;59.82;95933.53;5006078;28;20404;-70
2022/04/08 01:41:57;;;;;;;10.23;2.25;;;8.30;79.90;;;7.33;60.55;95931.16;5007873;28;20405;-70
2022/04/08 01:44:24;;;;;;;11.88;2.38;;;8.30;81.00;;;7.20;60.64;95938.81;5009553;28;20485;-71
2022/04/08 01:46:50;;;;;;;9.77;2.40;;;8.20;80.80;;;7.12;62.48;95934.84;5009545;28;20397;-71
2022/04/08 01:49:16;;;;;;;12.45;2.47;;;8.20;83.50;;;7.05;63.52;95936.19;5009523;28;20416;-70
2022/04/08 01:51:42;;;;;;;8.52;2.38;;;8.00;84.60;;;7.00;62.01;95929.84;5009101;28;20766;-69
2022/04/08 01:54:08;;;;;;;9.15;2.40;;;8.00;83.30;;;7.02;60.96;95934.84;5009397;28;20827;-72
2022/04/08 01:56:33;;;;;;;8.77;2.17;;;8.00;82.00;;;6.93;61.17;95929.31;5008024;28;20590;-70
2022/04/08 01:58:59;;;;;;;12.32;2.80;;;8.00;82.40;;;6.94;61.73;95930.13;5009369;28;20434;-70
2022/04/08 02:01:27;;;;;;;7.25;2.28;;;7.90;82.30;;;6.91;63.68;95922.78;5008902;28;20409;-71
2022/04/08 02:03:52;;;;;;;9.32;2.50;;;7.90;85.50;;;6.88;63.62;95944.31;5009376;28;20405;-70
2022/04/08 02:06:18;;;;;;;10.20;2.30;;;7.90;84.70;;;6.86;63.23;95934.06;5009432;28;20397;-70
2022/04/08 02:08:44;;;;;;;14.18;2.53;;;7.90;84.70;;;6.86;62.04;95934.06;5009275;28;20949;-71
2022/04/08 02:11:11;;;;;;;9.02;2.15;;;7.80;83.40;;;6.81;62.13;95952.47;5008780;28;20401;-71
2022/04/08 02:13:37;;;;;;;11.32;2.50;;;7.80;82.90;;;6.76;62.90;95949.06;5008962;28;20461;-70
2022/04/08 02:16:04;;;;;;;9.13;2.55;;;7.80;83.80;;;6.68;62.22;95952.19;5009259;28;20925;-72
2022/04/08 02:18:31;;;;;;;12.20;2.42;;;7.70;83.80;;;6.59;61.92;95947.47;5009148;28;20454;-72
2022/04/08 02:20:57;;;;;;;9.88;2.28;;;7.60;83.30;;;6.67;62.30;95948.00;5008481;28;20413;-70
2022/04/08 02:23:23;;;;;;;8.50;2.30;;;7.60;83.00;;;6.63;61.48;95941.66;5008877;28;20407;-70
2022/04/08 02:25:49;;;;;;;10.93;2.72;;;7.60;82.10;;;6.56;63.04;95944.53;5024102;28;20884;-70
2022/04/08 02:28:15;;;;;;;7.20;2.50;;;7.60;83.90;;;6.50;61.55;95951.63;5009046;28;20484;-70
2022/04/08 02:30:41;;;;;;;8.77;2.10;;;7.50;83.40;;;6.42;64.19;95944.25;5008444;28;20408;-71
2022/04/08 02:33:06;;;;;;;8.40;2.00;;;7.40;85.50;;;6.32;65.24;95949.47;5008879;28;20503;-70
2022/04/08 02:35:34;;;;;;;10.23;2.75;;;7.40;87.40;;;6.25;65.72;95948.16;5008807;28;20443;-71
2022/04/08 02:38:00;;;;;;;6.50;2.35;;;7.20;89.00;;;6.32;65.23;95957.38;5008844;28;20416;-71
2022/04/08 02:40:26;;;;;;;9.50;2.70;;;7.30;88.90;;;6.15;66.08;95962.84;5008311;28;20405;-70
2022/04/08 02:42:52;;;;;;;7.07;2.47;;;7.20;89.80;;;6.23;63.98;95969.44;5001645;28;20926;-69
2022/04/08 02:45:18;;;;;;;11.88;2.45;;;7.20;86.80;;;6.19;65.46;95977.03;5014013;28;20404;-69
2022/04/08 02:47:45;;;;;;;11.25;2.63;;;7.20;88.80;;;6.16;64.91;95976.78;5020186;28;20402;-70
2022/04/08 02:50:12;;;;;;;11.57;2.67;;;7.20;87.90;;;6.09;67.59;95973.59;5028010;28;20499;-70
2022/04/08 02:52:39;;;;;;;10.43;2.50;;;7.20;90.80;;;6.22;64.48;95986.25;5027936;28;20404;-70
2022/04/08 02:55:07;;;;;;;11.27;2.60;;;7.20;88.90;;;6.11;65.60;95985.41;5028236;28;20482;-71
2022/04/08 02:57:44;;;;;;;7.37;2.40;;;7.20;89.60;;;6.15;65.50;95997.00;5028409;28;20882;-70
2022/04/08 03:00:13;;;;;;;9.63;2.60;;;7.20;89.40;;;6.07;66.74;95994.06;5027863;28;20503;-70
2022/04/08 03:02:39;;;;;;;8.02;2.30;;;7.10;90.10;;;6.18;65.95;95999.09;5028108;28;20935;-70
2022/04/08 03:05:06;;;;;;;7.93;2.23;;;7.20;90.10;;;6.27;65.79;95995.97;5028094;28;20486;-70
2022/04/08 03:07:32;;;;;;;8.45;2.33;;;7.20;90.00;;;6.32;64.88;95988.09;5027947;28;20482;-71
2022/04/08 03:09:59;;;;;;;8.60;2.70;;;7.30;87.60;;;6.45;63.21;95979.75;5027766;28;20877;-70
2022/04/08 03:12:25;;;;;;;10.23;2.67;;;7.40;86.70;;;6.39;63.97;95994.69;5027653;28;20432;-70
2022/04/08 03:14:51;;;;;;;8.15;2.35;;;7.40;87.20;;;6.17;65.60;95992.25;5027667;28;20445;-70
2022/04/08 03:17:17;;;;;;;9.37;2.43;;;7.30;88.90;;;6.07;67.88;95996.69;5027948;28;20419;-70
2022/04/08 03:19:43;;;;;;;9.45;2.20;;;7.10;90.80;;;6.13;67.53;95999.09;5027755;28;20448;-70
2022/04/08 03:22:09;;;;;;;9.68;2.15;;;7.10;90.90;;;6.12;68.27;96004.59;5027512;28;20433;-70
2022/04/08 03:24:35;;;;;;;7.65;2.50;;;7.10;91.40;;;6.11;65.42;96005.63;5027748;28;20414;-72
2022/04/08 03:27:03;;;;;;;8.90;2.00;;;7.10;89.40;;;6.19;63.27;95994.63;5027176;28;20749;-71
2022/04/08 03:29:29;;;;;;;10.20;2.70;;;7.20;86.50;;;6.23;62.04;96011.47;5023106;28;20401;-71
2022/04/08 03:31:55;;;;;;;8.52;2.20;;;7.30;83.90;;;6.39;63.03;96002.59;5007908;28;20495;-71
2022/04/08 03:34:21;;;;;;;11.97;2.73;;;7.30;85.70;;;6.35;62.30;96004.16;5008029;28;20442;-71
2022/04/08 03:36:47;;;;;;;8.10;2.58;;;7.40;83.60;;;6.41;62.69;96011.00;5007750;28;20991;-70
2022/04/08 03:39:13;;;;;;;8.13;2.53;;;7.30;84.10;;;6.40;61.23;96019.94;5007949;28;20405;-70
2022/04/08 03:41:39;;;;;;;9.27;2.22;;;7.40;83.40;;;6.44;59.72;96015.75;5007506;28;20413;-69
2022/04/08 03:44:07;;;;;;;9.30;2.72;;;7.40;80.60;;;6.48;61.10;96016.81;5007853;28;20454;-70
2022/04/08 03:46:33;;;;;;;9.30;2.50;;;7.40;82.60;;;6.38;61.71;96008.91;5007818;28;21155;-70
2022/04/08 03:48:58;;;;;;;9.13;2.30;;;7.40;82.90;;;6.31;63.29;96003.09;5007664;28;20409;-70
2022/04/08 03:51:24;;;;;;;11.73;2.60;;;7.30;84.80;;;6.39;62.79;96004.44;5007335;28;20508;-70
2022/04/08 03:53:50;;;;;;;10.25;2.92;;;7.30;84.60;;;6.26;62.21;95994.41;5007527;28;20413;-70
2022/04/08 03:56:16;;;;;;;12.00;2.70;;;7.30;84.40;;;6.24;61.95;96001.78;5007407;28;20425;-70
2022/04/08 03:58:42;;;;;;;9.68;2.67;;;7.30;83.70;;;6.36;59.92;96004.94;5006972;28;20489;-71
2022/04/08 04:01:18;;;;;;;13.63;2.87;;;7.30;80.20;;;6.33;61.70;96018.59;5006479;28;20889;-72
2022/04/08 04:03:44;;;;;;;9.38;2.80;;;7.40;81.80;;;6.35;60.62;96027.03;5003965;28;20420;-71
2022/04/08 04:06:10;;;;;;;11.35;2.35;;;7.40;81.20;;;6.35;60.63;96027.03;5007100;28;20398;-71
2022/04/08 04:08:36;;;;;;;11.70;2.50;;;7.40;80.90;;;6.34;59.73;96026.22;5006961;28;20926;-71
2022/04/08 04:11:01;;;;;;;13.27;3.13;;;7.40;80.40;;;6.35;61.21;96032.28;5001855;28;20481;-71
2022/04/08 04:13:27;;;;;;;12.25;2.80;;;7.40;82.60;;;6.37;60.03;96015.22;5003372;28;20415;-71
2022/04/08 04:18:28;;;;;;;13.07;2.53;;;7.30;85.20;;;6.31;60.97;96023.34;5046275;28;20418;-72
2022/04/08 04:20:54;;;;;;;10.85;2.97;;;7.30;81.80;;;6.37;59.67;96020.47;5051610;28;20421;-72
2022/04/08 04:23:20;;;;;;;13.27;2.70;;;7.30;79.90;;;6.36;60.86;96034.66;5048292;28;20467;-73
2022/04/08 04:25:46;;;;;;;10.80;3.03;;;7.30;81.50;;;6.32;59.52;96025.69;5049038;28;20417;-73
2022/04/08 04:28:13;;;;;;;17.47;2.73;;;7.40;79.30;;;6.20;61.21;96018.03;5048669;28;20470;-72
2022/04/08 04:30:38;;;;;;;11.25;2.70;;;7.30;81.80;;;6.30;60.49;96013.88;5050626;28;20444;-74
2022/04/08 04:33:07;;;;;;;9.00;2.80;;;7.30;81.10;;;6.17;60.66;96013.28;5058098;28;20405;-73
2022/04/08 04:35:35;;;;;;;12.90;2.80;;;7.20;81.30;;;6.13;60.98;96006.97;5058367;28;20908;-73
2022/04/08 04:38:01;;;;;;;8.43;2.53;;;7.20;81.00;;;6.13;61.14;96011.44;5053885;28;20452;-73
2022/04/08 04:40:27;;;;;;;12.43;2.88;;;7.20;81.40;;;6.01;63.12;96000.34;5060236;28;20403;-73
2022/04/08 04:42:53;;;;;;;13.40;2.70;;;7.10;84.60;;;6.08;62.63;96001.69;5069364;28;20408;-73
2022/04/08 04:45:19;;;;;;;10.23;2.70;;;7.10;83.40;;;5.93;64.48;96011.34;5069576;28;20404;-73
2022/04/08 04:47:45;;;;;;;12.85;2.72;;;7.00;86.70;;;6.02;62.73;96017.66;5069319;28;20396;-71
2022/04/08 04:50:11;;;;;;;15.25;2.80;;;7.00;84.90;;;5.98;62.54;96020.03;5068854;28;21465;-72
2022/04/08 04:52:38;;;;;;;13.30;2.85;;;7.00;84.20;;;6.06;61.82;96021.38;5066306;28;20434;-71
2022/04/08 04:55:09;;;;;;;10.20;2.60;;;7.00;83.30;;;6.09;61.69;96021.66;5048644;28;20983;-70
2022/04/08 04:57:35;;;;;;;9.35;2.80;;;7.10;83.10;;;6.01;63.71;96016.13;5054142;28;20431;-71
2022/04/08 05:00:02;;;;;;;11.20;2.40;;;7.10;85.40;;;5.96;63.20;96021.31;5060532;28;20457;-70
2022/04/08 05:02:28;;;;;;;14.38;2.50;;;7.00;84.50;;;5.97;62.01;96017.66;5068879;28;20490;-71
2022/04/08 05:04:54;;;;;;;7.03;2.08;;;7.00;83.80;;;6.10;61.72;96020.59;5069113;28;20391;-70
2022/04/08 05:07:20;;;;;;;16.85;2.70;;;7.10;82.90;;;6.01;63.24;96019.53;5068937;28;20432;-72
2022/04/08 05:09:47;;;;;;;18.73;2.60;;;7.00;85.90;;;5.92;66.93;96020.25;5069027;28;20408;-72
2022/04/08 05:12:13;;;;;;;9.88;2.50;;;7.00;89.90;;;5.87;68.98;96018.34;5068655;28;20396;-72
2022/04/08 05:14:39;;;;;;;12.75;2.83;;;6.90;91.40;;;5.82;69.77;96016.50;5069004;28;20404;-72
2022/04/08 05:17:05;;;;;;;8.13;2.35;;;6.90;92.40;;;5.73;68.22;96022.47;5070950;28;20472;-71
2022/04/08 05:19:31;;;;;;;6.23;2.27;;;6.80;92.00;;;5.60;66.93;96021.09;5069275;28;20913;-70
2022/04/08 05:21:57;;;;;;;9.15;2.38;;;6.70;91.10;;;5.59;68.12;96029.22;5053111;28;20417;-71
2022/04/08 05:24:23;;;;;;;11.37;2.70;;;6.70;91.30;;;5.71;68.74;96029.84;5064397;28;20570;-71
2022/04/08 05:26:51;;;;;;;9.40;2.47;;;6.70;92.00;;;5.61;68.63;96027.13;5066089;28;20837;-71
2022/04/08 05:29:17;;;;;;;8.45;2.33;;;6.70;92.40;;;5.89;69.60;96039.13;5065234;28;20407;-72
2022/04/08 05:31:42;;;;;;;12.80;2.67;;;6.80;92.60;;;5.74;68.44;96037.19;5072465;28;20396;-71
2022/04/08 05:34:08;;;;;;;16.00;3.00;;;6.90;92.00;;;5.69;69.40;96042.41;5072840;28;20407;-71
2022/04/08 05:36:34;;;;;;;10.52;2.67;;;6.80;93.00;;;5.69;68.93;96043.22;5072517;28;20422;-70
2022/04/08 05:39:00;;;;;;;11.55;2.80;;;6.80;92.50;;;5.68;69.69;96049.50;5066774;28;20444;-70
2022/04/08 05:41:26;;;;;;;10.68;2.70;;;6.80;92.90;;;5.80;69.51;96047.47;5060191;28;20399;-70
2022/04/08 05:43:54;;;;;;;10.67;2.50;;;6.80;92.80;;;5.82;71.55;96050.63;5061408;28;20401;-69
2022/04/08 05:46:20;;;;;;;8.93;2.85;;;6.90;94.00;;;5.84;70.81;96047.75;5072507;28;20414;-71
2022/04/08 05:48:46;;;;;;;10.10;2.88;;;6.90;94.10;;;5.92;72.57;96049.94;5069658;28;20400;-72
2022/04/08 05:51:12;;;;;;;10.32;2.38;;;6.90;94.80;;;5.84;69.73;96048.56;5056730;28;20399;-71
2022/04/08 05:53:38;;;;;;;9.05;2.30;;;6.90;93.80;;;5.98;72.85;96056.81;5064193;28;20404;-71
2022/04/08 05:56:04;;;;;;;12.25;2.80;;;7.00;95.40;;;6.00;73.65;96056.56;5067495;28;20404;-70
2022/04/08 05:58:31;;;;;;;13.20;2.88;;;7.00;95.90;;;5.99;75.08;96052.34;5066568;28;20452;-70
2022/04/08 06:00:59;;;;;;;12.02;2.70;;;7.00;96.90;;;5.95;73.78;96056.50;5069632;28;20409;-70
2022/04/08 06:03:25;;;;;;;11.55;2.50;;;7.00;96.50;;;5.91;71.53;96055.44;5063799;28;21035;-69
2022/04/08 06:05:51;;;;;;;13.30;2.83;;;7.00;96.30;;;6.19;70.57;96055.06;5072101;28;20396;-70
2022/04/08 06:08:16;;;;;;;10.65;2.00;;;7.20;94.60;;;6.12;68.51;96051.88;5072266;28;20496;-71
2022/04/08 06:10:42;;;;;;;9.73;2.00;;;7.10;92.50;;;6.01;71.93;96037.91;5071745;28;20635;-70
2022/04/08 06:13:08;;;;;;;12.30;2.30;;;7.00;95.00;;;5.74;72.98;96035.34;5072066;28;20403;-70
2022/04/08 06:15:35;;;;;;;11.50;2.58;;;6.90;95.50;;;5.83;78.65;96046.16;5070658;28;20411;-69
2022/04/08 06:18:03;;;;;;;10.38;3.13;;;6.80;99.30;;;5.68;74.94;96040.81;5061922;28;20803;-70
2022/04/08 06:20:29;;;;;;;10.20;2.47;;;6.80;96.80;;;5.61;73.86;96029.75;5048836;28;20444;-70
2022/04/08 06:22:55;;;;;;;11.70;2.97;;;6.60;96.50;;;5.68;73.27;96027.69;5049382;28;20420;-69
2022/04/08 06:25:23;;;;;;;11.32;2.70;;;6.60;96.40;;;5.67;77.67;96029.53;5061895;28;20404;-70
2022/04/08 06:27:57;;;;;;;13.77;2.75;;;6.70;98.70;;;5.72;80.94;96029.56;5046939;28;20391;-70
2022/04/08 06:30:23;;;;;;;9.45;2.38;;;6.70;99.90;;;5.69;82.44;96022.19;5038175;28;20886;-71
2022/04/08 06:32:49;;;;;;;7.90;2.70;;;6.70;99.90;;;5.88;81.06;96022.59;5047711;28;20884;-71
2022/04/08 06:35:17;;;;;;;8.90;2.40;;;6.80;99.90;;;5.74;77.96;96021.44;5050304;28;20500;-70
2022/04/08 06:37:42;;;;;;;10.73;2.60;;;6.70;99.70;;;5.67;76.22;96013.78;5050203;28;20427;-70
2022/04/08 06:40:10;;;;;;;7.07;2.60;;;6.70;98.50;;;5.68;76.45;96014.56;5049850;28;20490;-70
2022/04/08 06:42:38;;;;;;;9.40;2.17;;;6.70;98.30;;;5.60;79.79;96012.41;5048367;28;20400;-70
2022/04/08 06:45:07;;;;;;;13.45;3.28;;;6.60;99.90;;;5.66;81.90;96009.56;5048901;28;20406;-72
2022/04/08 06:47:33;;;;;;;9.40;2.30;;;6.60;99.90;;;5.58;80.29;96015.28;5048392;28;20402;-70
2022/04/08 06:49:59;;;;;;;9.77;2.40;;;6.60;99.90;;;5.66;78.57;96009.56;5050774;28;20416;-69
2022/04/08 06:52:26;;;;;;;9.97;2.53;;;6.60;99.90;;;5.59;79.46;96016.88;5050360;28;20397;-70
2022/04/08 06:54:52;;;;;;;13.95;2.88;;;6.60;99.90;;;5.59;82.07;96016.09;5050818;28;20420;-72
2022/04/08 06:57:18;;;;;;;9.02;2.67;;;6.60;99.90;;;5.69;84.04;96014.31;5051157;28;20910;-71
2022/04/08 06:59:44;;;;;;;8.77;2.90;;;6.60;99.90;;;5.41;82.94;96018.06;5051386;28;20439;-71
2022/04/08 07:02:10;;;;;;;7.47;2.85;;;6.50;99.90;;;5.45;81.93;96013.91;5050847;28;20405;-71
2022/04/08 07:04:36;;;;;;;8.20;2.58;;;6.50;99.90;;;5.40;83.01;96010.47;5051110;28;20408;-71
2022/04/08 07:07:06;;;;;;;10.82;2.30;;;6.50;99.90;;;5.24;83.51;96004.31;5051084;28;20408;-72
2022/04/08 07:09:34;;;;;;;10.77;2.53;;;6.40;99.90;;;5.09;83.47;96008.63;5050824;28;20406;-72
2022/04/08 07:12:00;;;;;;;11.85;3.40;;;6.30;99.90;;;5.15;84.38;96012.88;5050489;28;20459;-71
2022/04/08 07:14:27;;;;;;;14.25;2.97;;;6.30;99.90;;;5.21;86.05;95996.13;5049700;28;20401;-71
2022/04/08 07:16:53;;;;;;;9.65;2.58;;;6.20;99.90;;;5.09;86.29;95993.69;5050592;28;20429;-71
2022/04/08 07:19:19;;;;;;;11.30;2.83;;;6.20;99.90;;;5.22;89.55;95995.88;5050886;28;20405;-72
2022/04/08 07:21:45;;;;;;;11.65;2.60;;;6.30;99.90;;;5.00;90.50;96000.44;5050674;28;20763;-72
2022/04/08 07:24:11;;;;;;;13.25;2.60;;;6.20;99.90;;;5.06;90.67;95988.94;5050887;28;20410;-71
2022/04/08 07:26:38;;;;;;;15.68;3.28;;;6.10;99.90;;;5.16;92.26;95985.59;5050705;28;20484;-71
2022/04/08 07:29:04;;;;;;;23.58;3.60;;;6.20;99.90;;;5.25;93.64;95978.88;5050591;28;20789;-71
2022/04/08 07:31:30;;;;;;;17.13;3.42;;;6.20;99.90;;;5.18;94.47;95973.03;5050158;28;20405;-71
2022/04/08 07:33:56;;;;;;;9.57;2.95;;;6.20;99.90;;;5.18;94.95;95976.47;5050589;28;20464;-72
2022/04/08 07:36:22;;;;;;;18.10;3.03;;;6.20;99.90;;;5.11;95.45;95977.72;5050518;28;20898;-72
2022/04/08 07:38:48;;;;;;;20.45;3.28;;;6.30;99.90;;;5.12;95.73;95971.41;5049620;28;20410;-72
2022/04/08 07:41:15;;;;;;;8.40;2.55;;;6.20;99.90;;;4.91;94.18;95970.44;5050152;28;20432;-71
2022/04/08 07:43:42;;;;;;;24.95;3.70;;;6.00;99.90;;;5.23;94.91;95962.56;5050550;28;20485;-71
2022/04/08 07:46:08;;;;;;;13.30;3.33;;;6.20;99.90;;;5.47;96.13;95957.75;5050307;28;20570;-72
2022/04/08 07:48:34;;;;;;;16.58;2.78;;;6.50;99.90;;;5.62;96.88;95963.88;5050342;28;20965;-72
2022/04/08 07:51:00;;;;;;;11.27;2.50;;;6.60;99.90;;;5.61;97.00;95957.06;5049955;28;20393;-72
2022/04/08 07:53:26;;;;;;;15.55;2.65;;;6.60;99.90;;;5.55;97.13;95955.44;5050230;28;20832;-72
2022/04/08 07:55:51;;;;;;;10.15;2.50;;;6.60;99.90;;;5.60;97.33;95955.47;5050004;28;20402;-71
2022/04/08 07:58:20;;;;;;;14.40;2.85;;;6.70;99.90;;;5.91;96.73;95947.78;5050326;28;20417;-72
2022/04/08 08:00:48;;;;;;;12.20;2.58;;;6.80;99.90;;;6.06;97.34;95948.63;5049599;28;20409;-72
2022/04/08 08:03:15;;;;;;;8.88;2.20;;;7.00;99.90;;;5.88;97.63;95943.81;5049963;28;20406;-71
2022/04/08 08:05:41;;;;;;;13.15;2.40;;;7.00;99.90;;;6.25;97.91;95943.69;5050051;28;20437;-71
2022/04/08 08:08:07;;;;;;;11.38;2.13;;;7.10;99.90;;;5.95;97.00;95936.50;5049976;28;20401;-72
2022/04/08 08:10:41;;;;;;;7.45;2.20;;;7.10;99.90;;;5.41;90.70;95928.84;5049190;28;20412;-72
2022/04/08 08:13:07;;;;;;;6.50;2.60;;;6.60;99.90;;;5.42;90.26;95925.19;5049750;28;20922;-72
2022/04/08 08:15:36;;;;;;;6.40;2.23;;;6.50;99.90;;;5.44;91.38;95925.72;5048667;28;20414;-71
2022/04/08 08:18:05;;;;;;;8.50;2.47;;;6.50;99.90;;;5.75;91.86;95924.03;5049464;28;20448;-72
2022/04/08 08:20:31;;;;;;;6.40;2.10;;;6.60;99.90;;;5.59;90.97;95925.00;5049098;28;20409;-72
2022/04/08 08:22:57;;;;;;;5.53;2.05;;;6.70;99.90;;;5.76;91.46;95914.34;5049769;28;20412;-72
2022/04/08 08:25:23;;;;;;;8.80;2.15;;;6.70;99.90;;;5.98;92.54;95906.31;5048367;28;20413;-72
2022/04/08 08:27:54;;;;;;;9.82;2.40;;;7.00;99.90;;;6.44;93.68;95909.84;5049444;28;20454;-72
2022/04/08 08:30:21;;;;;;;6.32;2.00;;;7.30;99.90;;;5.97;88.59;95897.63;5047920;28;20909;-72
2022/04/08 08:32:49;;;;;;;4.45;1.90;;;7.10;99.90;;;5.85;88.46;95894.41;5049549;28;20397;-72
2022/04/08 08:35:18;;;;;;;3.53;1.50;;;6.90;99.90;;;5.65;87.14;95895.09;5049570;28;20408;-72
2022/04/08 08:37:44;;;;;;;3.85;1.98;;;6.70;99.90;;;5.92;90.37;95888.97;5049323;28;20516;-72
2022/04/08 08:40:13;;;;;;;5.95;1.83;;;6.70;99.90;;;6.14;91.72;95889.53;5047602;28;20924;-72
2022/04/08 08:42:39;;;;;;;3.33;1.83;;;6.90;99.90;;;6.03;90.99;95885.28;5049259;28;20440;-72
2022/04/08 08:45:10;;;;;;;6.53;1.70;;;7.00;99.90;;;6.22;90.65;95881.94;5049573;28;20401;-72
2022/04/08 08:47:37;;;;;;;7.43;1.70;;;7.10;99.90;;;6.50;91.85;95875.41;5049403;28;20428;-69
2022/04/08 08:50:04;;;;;;;3.60;1.52;;;7.30;99.90;;;6.50;92.08;95872.78;5049036;28;20398;-69
2022/04/08 08:52:32;;;;;;;7.50;1.58;;;7.40;99.90;;;6.72;90.14;95867.25;5049110;28;20405;-72
2022/04/08 08:55:00;;;;;;;7.70;1.58;;;7.50;99.90;;;6.57;88.59;95864.63;5047850;28;20402;-72
2022/04/08 08:57:26;;;;;;;2.78;1.40;;;7.50;99.90;;;6.51;89.00;95863.84;5049062;28;20429;-72
2022/04/08 09:00:01;;;;;;;6.10;1.50;;;7.50;99.90;;;6.49;89.80;95862.53;5052932;28;20413;-72
2022/04/08 09:02:26;;;;;;;6.30;1.95;;;7.40;99.90;;;6.70;91.39;95864.09;5044432;28;20496;-73
2022/04/08 09:04:52;;;;;;;5.50;1.80;;;7.50;99.90;;;6.45;90.48;95854.38;5057757;28;20950;-68
2022/04/08 09:07:24;;;;;;;7.60;1.80;;;7.30;99.90;;;6.55;90.69;95848.31;5059085;28;20435;-72
2022/04/08 09:09:53;;;;;;;10.15;2.13;;;7.30;99.90;;;6.83;92.35;95850.44;5069143;28;20762;-71
2022/04/08 09:12:23;;;;;;;6.80;1.67;;;7.60;99.90;;;6.58;91.05;95850.44;5068792;28;20490;-72
2022/04/08 09:14:50;;;;;;;6.00;1.80;;;7.50;99.90;;;6.80;91.02;95837.81;5062623;28;20436;-72
2022/04/08 09:17:17;;;;;;;4.13;1.73;;;7.60;99.90;;;6.45;89.27;95838.63;5056297;28;20498;-69
2022/04/08 09:19:47;;;;;;;6.10;2.00;;;7.40;99.90;;;6.18;88.52;95827.53;5055589;28;20434;-72
2022/04/08 09:22:13;;;;;;;5.30;1.70;;;7.20;99.90;;;6.38;92.57;95818.91;5056618;28;20897;-72
2022/04/08 09:24:39;;;;;;;6.63;1.80;;;7.30;99.90;;;6.25;93.38;95808.88;5064172;28;20405;-69
2022/04/08 09:27:06;;;;;;;9.43;2.00;;;7.20;99.90;;;6.22;93.47;95800.50;5049026;28;20407;-71
2022/04/08 09:29:34;;;;;;;13.77;2.40;;;7.10;99.90;;;6.43;95.01;95792.63;5042709;28;20410;-71
2022/04/08 09:32:07;;;;;;;6.28;2.05;;;7.30;99.90;;;6.70;95.99;95793.09;5042954;28;20414;-71
2022/04/08 09:34:33;;;;;;;13.67;2.30;;;7.60;99.90;;;6.73;96.17;95783.91;5058418;28;20403;-71
2022/04/08 09:37:06;;;;;;;6.45;2.00;;;7.60;99.90;;;6.83;96.74;95768.91;5048900;28;20419;-71
2022/04/08 09:39:32;;;;;;;6.18;1.90;;;7.70;99.90;;;6.81;97.24;95763.13;5042780;28;20405;-70
2022/04/08 09:42:03;;;;;;;5.37;1.67;;;7.70;99.90;;;6.48;97.21;95761.84;5047752;28;20406;-71
2022/04/08 09:44:31;;;;;;;7.40;2.00;;;7.50;99.90;;;6.08;94.80;95760.03;5048239;28;20431;-71
2022/04/08 09:46:57;;;;;;;7.70;1.67;;;7.10;99.90;;;5.71;95.30;95757.56;5048651;28;20759;-72
2022/04/08 09:49:23;;;;;;;3.38;1.60;;;6.90;99.90;;;5.75;95.50;95761.28;5060380;28;20407;-71
2022/04/08 09:51:50;;;;;;;11.63;2.35;;;6.80;99.90;;;6.17;96.23;95755.81;5067135;28;20464;-72
2022/04/08 09:54:21;;;;;;;6.53;1.70;;;7.00;99.90;;;6.20;97.10;95741.38;5084327;28;20411;-71
2022/04/08 09:56:48;;;;;;;10.65;2.05;;;7.10;99.90;;;6.12;97.25;95729.56;5068616;28;20408;-72
2022/04/08 09:59:19;;;;;;;13.70;1.90;;;7.10;99.90;;;6.16;97.60;95720.09;5068551;28;20427;-69
2022/04/08 10:01:47;;;;;;;10.90;1.88;;;7.10;99.90;;;5.95;98.05;95715.88;5068694;28;20422;-72
2022/04/08 10:04:14;;;;;;;8.57;2.40;;;7.00;99.90;;;6.25;98.76;95712.47;5062263;28;20459;-71
2022/04/08 10:06:42;;;;;;;67.70;4.63;;;7.20;99.90;;;6.31;99.59;95708.81;5066433;28;20409;-72
2022/04/08 10:09:11;;;;;;;9.90;1.95;;;7.20;99.90;;;6.18;99.97;95693.56;5072212;28;20945;-70
2022/04/08 10:11:46;;;;;;;22.05;2.60;;;7.30;99.90;;;6.44;100.00;95678.56;5071789;28;20921;-72
2022/04/08 10:14:25;;;;;;;31.15;2.58;;;7.30;99.90;;;6.73;100.00;95673.47;5070816;28;20430;-72
2022/04/08 10:16:55;;;;;;;15.38;2.10;;;7.60;99.90;;;6.70;100.00;95672.16;5066660;22;20445;-68
2022/04/08 10:19:22;;;;;;;9.38;2.63;;;7.70;99.90;;;6.77;100.00;95658.72;5000792;28;20503;-69
2022/04/08 10:21:52;;;;;;;9.97;1.87;;;7.80;99.90;;;7.03;100.00;95656.78;5000120;28;20415;-68
2022/04/08 10:24:23;;;;;;;10.30;1.90;;;7.90;99.90;;;7.24;100.00;95645.88;5002830;28;20793;-68
2022/04/08 10:26:59;;;;;;;5.63;1.80;;;8.10;99.90;;;7.42;100.00;95641.06;5000803;28;20433;-71
2022/04/08 10:29:25;;;;;;;13.25;1.63;;;8.30;99.90;;;7.42;100.00;95644.47;4969919;28;20419;-69
2022/04/08 10:32:04;;;;;;;8.68;1.60;;;8.30;99.90;;;7.27;100.00;95634.03;4997236;28;20896;-69